Time;durP1;ratioP1;P1;durP2;ratioP2;P2;SDS_P1;SDS_P2;PMS_P1;PMS_P2;Temp;Humidity;BMP_temperature;BMP_pressure;BME280_temperature;BME280_humidity;BME280_pressure;Samples;Min_cycle;Max_cycle;Signal;HPM_P1;HPM_P2
2022/09/01 00:01:52;;;;;;;11.93;10.73;;;;;;;14.16;95.68;95832.47;4954518;28;20656;-81
2022/09/01 00:04:24;;;;;;;12.70;11.35;;;;;;;14.14;96.06;95834.44;4951066;28;20203;-80
2022/09/01 00:06:50;;;;;;;12.90;11.57;;;;;;;14.06;96.50;95837.03;4957145;28;20209;-80
2022/09/01 00:09:18;;;;;;;16.55;11.75;;;;;;;14.04;96.76;95835.53;4970067;28;20198;-80
2022/09/01 00:11:46;;;;;;;13.82;12.35;;;;;;;14.00;97.34;95826.41;4961175;28;20196;-80
2022/09/01 00:14:12;;;;;;;13.88;12.23;;;;;;;13.91;98.44;95828.19;4971697;28;20308;-80
2022/09/01 00:16:37;;;;;;;14.38;13.05;;;;;;;13.81;99.81;95828.34;4962150;28;20685;-80
2022/09/01 00:19:04;;;;;;;13.88;12.40;;;;;;;13.85;98.84;95831.44;4973170;28;20208;-80
2022/09/01 00:21:36;;;;;;;14.98;12.77;;;;;;;13.81;99.48;95827.53;4962476;28;20667;-80
2022/09/01 00:24:02;;;;;;;13.02;11.73;;;;;;;13.73;99.51;95830.94;4948948;28;20205;-80
2022/09/01 00:26:28;;;;;;;16.52;11.80;;;;;;;13.78;99.31;95828.69;4973223;28;20303;-80
2022/09/01 00:28:53;;;;;;;15.77;12.82;;;;;;;13.67;99.57;95823.75;4969254;28;20243;-80
2022/09/01 00:31:19;;;;;;;15.15;13.00;;;;;;;13.66;99.87;95835.16;4958993;28;20188;-80
2022/09/01 00:33:46;;;;;;;14.68;13.10;;;;;;;13.65;99.84;95833.53;4949754;28;20275;-81
2022/09/01 00:36:11;;;;;;;14.02;12.57;;;;;;;13.63;99.53;95830.28;4973327;28;20259;-81
2022/09/01 00:38:37;;;;;;;15.18;13.27;;;;;;;13.58;100.00;95827.31;4962514;28;20188;-81
2022/09/01 00:41:02;;;;;;;13.70;12.30;;;;;;;13.52;99.98;95833.19;4970386;28;20223;-82
2022/09/01 00:43:36;;;;;;;14.20;12.70;;;;;;;13.48;99.87;95827.44;4972190;28;20198;-81
2022/09/01 00:46:03;;;;;;;14.55;12.15;;;;;;;13.48;99.68;95830.06;4972777;28;20246;-79
2022/09/01 00:48:28;;;;;;;14.18;12.63;;;;;;;13.42;99.57;95829.88;4953116;28;20219;-79
2022/09/01 00:50:54;;;;;;;14.13;12.65;;;;;;;13.42;99.30;95824.66;4957843;28;20215;-80
2022/09/01 00:53:19;;;;;;;12.98;11.70;;;;;;;13.41;99.52;95820.41;4958823;28;20210;-80
2022/09/01 00:55:44;;;;;;;14.98;12.07;;;;;;;13.38;99.48;95820.75;4968526;28;20199;-81
2022/09/01 00:58:10;;;;;;;17.92;15.27;;;;;;;13.43;100.00;95815.84;4969163;28;20191;-80
2022/09/01 01:00:39;;;;;;;14.60;13.10;;;;;;;13.44;99.61;95815.72;4993385;28;20271;-80
2022/09/01 01:03:06;;;;;;;17.15;14.95;;;;;;;13.41;99.69;95817.81;4973608;28;20676;-81
2022/09/01 01:05:35;;;;;;;17.38;15.18;;;;;;;13.40;99.89;95814.38;4957748;28;20211;-80
2022/09/01 01:08:01;;;;;;;23.27;17.40;;;;;;;13.39;99.96;95817.16;4953771;28;20242;-82
2022/09/01 01:10:31;;;;;;;22.25;19.85;;;;;;;13.43;100.00;95819.28;4972290;28;20199;-80
2022/09/01 01:12:59;;;;;;;27.73;24.73;;;;;;;13.51;100.00;95821.09;4959247;28;20231;-80
2022/09/01 01:15:25;;;;;;;31.25;25.80;;;;;;;13.59;100.00;95815.91;4955810;28;20606;-79
2022/09/01 01:17:50;;;;;;;27.67;24.45;;;;;;;13.70;100.00;95813.00;4974938;28;20188;-81
2022/09/01 01:23:24;;;;;;;30.90;26.73;;;;;;;13.80;100.00;95811.06;4976377;28;20243;-80
2022/09/01 01:25:53;;;;;;;31.37;26.10;;;;;;;13.76;100.00;95804.50;4956370;28;20302;-81
2022/09/01 01:28:39;;;;;;;31.98;28.17;;;;;;;13.92;100.00;95801.13;4966839;28;20271;-81
2022/09/01 01:31:11;;;;;;;32.63;27.58;;;;;;;13.88;100.00;95802.44;4957894;28;20892;-79
2022/09/01 01:33:40;;;;;;;32.50;29.05;;;;;;;13.86;100.00;95797.34;4974150;28;20191;-81
2022/09/01 01:36:11;;;;;;;31.90;28.43;;;;;;;13.94;100.00;95806.16;4950202;28;20204;-80
2022/09/01 01:38:38;;;;;;;31.53;27.67;;;;;;;13.83;100.00;95797.69;4975419;28;20619;-81
2022/09/01 01:41:05;;;;;;;34.63;30.90;;;;;;;13.74;100.00;95800.44;4963857;28;20254;-80
2022/09/01 01:43:30;;;;;;;33.97;30.20;;;;;;;13.71;100.00;95800.78;4968601;28;20479;-80
2022/09/01 01:46:01;;;;;;;37.45;31.48;;;;;;;13.77;100.00;95813.97;4960719;28;20247;-80
2022/09/01 01:48:27;;;;;;;33.00;29.45;;;;;;;13.77;100.00;95811.38;4957616;28;20271;-80
2022/09/01 01:50:53;;;;;;;36.97;32.28;;;;;;;13.70;100.00;95813.00;4956333;28;20202;-80
2022/09/01 01:53:19;;;;;;;38.03;32.47;;;;;;;13.71;100.00;95806.00;4957618;28;20192;-82
2022/09/01 01:55:48;;;;;;;33.85;30.23;;;;;;;13.75;100.00;95808.09;4958213;28;20836;-81
2022/09/01 01:58:14;;;;;;;34.23;29.57;;;;;;;13.68;100.00;95812.31;4966276;28;20303;-80
2022/09/01 02:00:43;;;;;;;37.83;31.57;;;;;;;13.71;100.00;95821.66;4988939;28;20664;-80
2022/09/01 02:03:11;;;;;;;35.78;31.85;;;;;;;13.66;100.00;95813.47;4966603;28;20195;-81
2022/09/01 02:05:37;;;;;;;34.73;30.40;;;;;;;13.63;100.00;95814.63;4967346;28;20239;-81
2022/09/01 02:08:08;;;;;;;39.83;34.13;;;;;;;13.71;100.00;95812.03;4966390;28;20560;-81
2022/09/01 02:10:38;;;;;;;42.27;34.73;;;;;;;13.67;100.00;95815.09;4973799;28;20266;-81
2022/09/01 02:13:05;;;;;;;40.15;35.15;;;;;;;13.68;100.00;95817.53;4951046;28;20210;-80
2022/09/01 02:15:38;;;;;;;42.93;36.73;;;;;;;13.66;100.00;95814.28;4956820;28;20203;-81
2022/09/01 02:18:04;;;;;;;45.53;38.77;;;;;;;13.73;100.00;95807.47;4950130;28;20707;-80
2022/09/01 02:20:31;;;;;;;45.72;38.78;;;;;;;13.74;100.00;95801.25;4970812;28;20266;-81
2022/09/01 02:22:57;;;;;;;43.30;37.37;;;;;;;13.72;100.00;95808.44;4970785;28;20184;-80
2022/09/01 02:25:22;;;;;;;46.80;39.23;;;;;;;13.74;100.00;95806.47;4956374;28;20212;-80
2022/09/01 02:27:54;;;;;;;42.13;37.50;;;;;;;13.70;100.00;95804.38;4972757;28;20184;-81
2022/09/01 02:30:21;;;;;;;40.50;36.08;;;;;;;13.76;100.00;95804.50;4956903;28;20192;-81
2022/09/01 02:32:46;;;;;;;43.60;36.73;;;;;;;13.69;100.00;95808.72;4960353;28;20572;-80
2022/09/01 02:35:15;;;;;;;45.23;36.33;;;;;;;13.58;100.00;95796.81;4976629;28;20211;-80
2022/09/01 02:37:42;;;;;;;43.10;35.87;;;;;;;13.57;100.00;95802.19;4988917;28;20187;-79
2022/09/01 02:40:10;;;;;;;40.97;35.25;;;;;;;13.55;100.00;95801.53;4965386;28;20184;-80
2022/09/01 02:42:39;;;;;;;42.53;35.70;;;;;;;13.57;100.00;95796.97;4964557;28;20188;-81
2022/09/01 02:45:07;;;;;;;42.10;35.70;;;;;;;13.53;100.00;95800.91;4969529;28;20223;-79
2022/09/01 02:47:33;;;;;;;42.83;32.93;;;;;;;13.49;100.00;95804.78;4970179;28;20752;-80
2022/09/01 02:50:02;;;;;;;38.03;33.63;;;;;;;13.50;100.00;95803.81;4965933;28;20184;-81
2022/09/01 02:52:34;;;;;;;38.90;32.20;;;;;;;13.50;100.00;95793.38;4972076;28;20612;-80
2022/09/01 02:54:59;;;;;;;36.77;32.73;;;;;;;13.46;100.00;95792.88;4963506;28;20187;-80
2022/09/01 02:57:24;;;;;;;36.53;32.57;;;;;;;13.42;100.00;95796.78;4969370;28;20208;-81
2022/09/01 02:59:50;;;;;;;38.83;32.43;;;;;;;13.44;100.00;95789.63;4954683;28;20184;-80
2022/09/01 03:02:15;;;;;;;38.70;31.15;;;;;;;13.41;100.00;95795.13;4964858;28;20249;-79
2022/09/01 03:04:40;;;;;;;36.43;32.47;;;;;;;13.41;100.00;95789.09;4990192;28;20219;-80
2022/09/01 03:07:06;;;;;;;35.80;30.70;;;;;;;13.53;100.00;95793.06;4969765;28;20216;-80
2022/09/01 03:09:34;;;;;;;37.80;31.87;;;;;;;13.49;100.00;95797.78;4957447;28;20190;-80
2022/09/01 03:11:59;;;;;;;36.70;30.60;;;;;;;13.39;100.00;95796.28;4974510;28;20191;-80
2022/09/01 03:14:25;;;;;;;37.67;31.03;;;;;;;13.35;100.00;95795.78;4959926;28;20215;-81
2022/09/01 03:16:50;;;;;;;35.80;30.70;;;;;;;13.43;100.00;95797.59;4971645;28;20231;-80
2022/09/01 03:19:16;;;;;;;32.97;29.43;;;;;;;13.39;100.00;95796.28;4964899;28;20211;-80
2022/09/01 03:21:42;;;;;;;34.77;30.90;;;;;;;13.39;100.00;95801.50;4974626;28;20595;-81
2022/09/01 03:24:11;;;;;;;33.53;29.83;;;;;;;13.40;100.00;95795.31;4973538;28;20211;-80
2022/09/01 03:26:36;;;;;;;35.93;30.27;;;;;;;13.33;100.00;95795.13;4967522;28;20211;-80
2022/09/01 03:29:02;;;;;;;33.07;28.63;;;;;;;13.27;100.00;95800.97;4976139;28;20187;-79
2022/09/01 03:31:28;;;;;;;32.37;28.87;;;;;;;13.31;100.00;95797.06;4973090;28;20595;-79
2022/09/01 03:33:55;;;;;;;32.50;28.87;;;;;;;13.30;100.00;95806.69;4990267;28;20274;-80
2022/09/01 03:36:24;;;;;;;34.87;30.20;;;;;;;13.20;100.00;95803.41;4975112;28;20200;-81
2022/09/01 03:38:50;;;;;;;35.93;31.67;;;;;;;13.22;100.00;95798.03;4969103;28;20191;-81
2022/09/01 03:41:20;;;;;;;34.43;29.10;;;;;;;13.22;100.00;95798.84;4970280;28;20633;-81
2022/09/01 03:43:46;;;;;;;36.57;31.50;;;;;;;13.09;100.00;95797.63;4950943;28;20316;-81
2022/09/01 03:46:18;;;;;;;34.63;29.67;;;;;;;13.06;100.00;95793.53;4970585;28;20567;-80
2022/09/01 03:48:44;;;;;;;37.40;30.23;;;;;;;13.07;100.00;95802.97;4989742;28;20565;-80
2022/09/01 03:51:13;;;;;;;31.67;27.60;;;;;;;13.10;100.00;95802.69;4976390;28;20192;-80
2022/09/01 03:53:38;;;;;;;32.17;28.73;;;;;;;13.09;100.00;95800.22;4963785;28;20192;-80
2022/09/01 03:56:04;;;;;;;34.53;29.93;;;;;;;12.95;100.00;95789.41;4965474;28;20207;-80
2022/09/01 03:58:29;;;;;;;39.97;30.57;;;;;;;12.91;100.00;95789.88;4964709;28;20180;-80
2022/09/01 04:00:59;;;;;;;35.33;30.70;;;;;;;12.97;100.00;95792.66;4967494;28;20189;-81
2022/09/01 04:03:27;;;;;;;36.23;31.53;;;;;;;12.95;100.00;95783.38;4957218;28;20192;-81
2022/09/01 04:05:53;;;;;;;33.83;29.03;;;;;;;12.96;100.00;95792.81;4957676;28;20220;-80
2022/09/01 04:08:20;;;;;;;35.83;31.23;;;;;;;12.80;100.00;95790.13;4973707;28;20246;-82
2022/09/01 04:10:51;;;;;;;39.20;30.03;;;;;;;12.87;100.00;95785.94;4959264;28;20214;-82
2022/09/01 04:13:23;;;;;;;40.23;30.87;;;;;;;12.83;100.00;95793.28;4975846;28;20196;-82
2022/09/01 04:15:48;;;;;;;37.90;30.23;;;;;;;12.76;100.00;95789.63;4968581;28;20203;-82
2022/09/01 04:18:20;;;;;;;34.63;29.23;;;;;;;12.85;100.00;95793.09;4955426;28;20687;-81
2022/09/01 04:20:48;;;;;;;32.23;28.73;;;;;;;12.83;100.00;95787.25;4956738;28;20187;-80
2022/09/01 04:23:28;;;;;;;36.57;28.70;;;;;;;12.77;100.00;95799.09;4956913;28;20298;-81
2022/09/01 04:26:09;;;;;;;32.00;27.77;;;;;;;12.71;100.00;95794.50;4957009;28;20719;-81
2022/09/01 04:28:37;;;;;;;38.33;29.43;;;;;;;12.75;100.00;95791.44;4975261;28;20283;-80
2022/09/01 04:31:08;;;;;;;36.37;28.83;;;;;;;12.71;100.00;95786.66;4971686;28;20684;-80
2022/09/01 04:33:38;;;;;;;39.33;30.23;;;;;;;12.69;100.00;95789.44;4956242;28;20679;-80
2022/09/01 04:36:05;;;;;;;35.00;29.57;;;;;;;12.81;100.00;95795.22;4971658;28;20211;-82
2022/09/01 04:38:34;;;;;;;32.80;27.90;;;;;;;12.81;100.00;95794.38;4958239;28;20568;-80
2022/09/01 04:41:05;;;;;;;32.83;27.83;;;;;;;12.75;100.00;95799.25;4966903;28;20644;-81
2022/09/01 04:43:31;;;;;;;29.47;24.87;;;;;;;12.79;100.00;95798.94;4955532;28;20731;-81
2022/09/01 04:45:57;;;;;;;29.70;26.23;;;;;;;12.70;100.00;95796.28;4968567;28;20223;-81
2022/09/01 04:48:24;;;;;;;31.23;27.23;;;;;;;12.71;100.00;95799.69;4956056;28;20579;-80
2022/09/01 04:50:50;;;;;;;29.07;25.90;;;;;;;12.75;100.00;95798.44;4971060;28;20211;-82
2022/09/01 04:53:17;;;;;;;31.13;27.30;;;;;;;12.80;100.00;95801.38;4972786;28;20567;-83
2022/09/01 04:55:43;;;;;;;31.60;27.43;;;;;;;12.76;100.00;95798.28;4966434;28;20715;-83
2022/09/01 04:58:12;;;;;;;33.47;27.20;;;;;;;12.89;100.00;95799.63;4960631;28;20188;-82
2022/09/01 05:00:39;;;;;;;30.60;26.20;;;;;;;12.90;100.00;95801.28;4961354;28;20180;-81
2022/09/01 05:03:04;;;;;;;32.13;26.63;;;;;;;12.84;100.00;95797.50;4957849;28;20183;-81
2022/09/01 05:05:42;;;;;;;33.50;26.73;;;;;;;12.93;100.00;95800.97;4967643;28;20220;-82
2022/09/01 05:08:13;;;;;;;36.17;26.53;;;;;;;12.94;100.00;95802.59;4953625;28;20187;-82
2022/09/01 05:10:41;;;;;;;32.07;27.40;;;;;;;13.04;100.00;95798.06;4972640;28;20183;-81
2022/09/01 05:13:08;;;;;;;32.33;26.70;;;;;;;13.12;100.00;95797.31;4968017;28;20192;-82
2022/09/01 05:15:36;;;;;;;31.37;26.40;;;;;;;13.19;100.00;95798.31;4957170;28;20199;-82
2022/09/01 05:18:08;;;;;;;33.23;26.63;;;;;;;13.18;100.00;95801.91;4957659;28;20199;-81
2022/09/01 05:20:37;;;;;;;31.00;25.87;;;;;;;13.29;100.00;95802.44;4969794;28;20190;-83
2022/09/01 05:23:03;;;;;;;30.30;25.97;;;;;;;13.43;100.00;95800.19;4963940;28;20645;-82
2022/09/01 05:25:29;;;;;;;28.47;25.37;;;;;;;13.50;100.00;95809.84;4950687;28;20593;-83
2022/09/01 05:27:56;;;;;;;30.80;25.60;;;;;;;13.62;100.00;95810.38;4969153;28;20184;-82
2022/09/01 05:30:27;;;;;;;28.63;24.53;;;;;;;13.71;100.00;95812.03;4950416;28;20192;-82
2022/09/01 05:32:53;;;;;;;32.37;25.97;;;;;;;13.74;100.00;95810.88;4991316;28;20544;-80
2022/09/01 05:35:19;;;;;;;29.40;25.27;;;;;;;13.70;100.00;95809.59;4985153;28;20197;-82
2022/09/01 05:37:44;;;;;;;29.73;25.33;;;;;;;13.71;100.00;95806.81;4965941;28;20192;-81
2022/09/01 05:40:14;;;;;;;28.13;23.90;;;;;;;13.93;100.00;95810.56;4967297;28;20191;-80
2022/09/01 05:42:41;;;;;;;27.33;24.43;;;;;;;14.04;99.68;95809.44;4993257;28;20259;-80
2022/09/01 05:45:09;;;;;;;26.07;23.03;;;;;;;14.12;99.29;95817.28;4963238;28;20211;-78
2022/09/01 05:47:35;;;;;;;26.30;23.57;;;;;;;14.24;98.31;95815.19;4973762;28;20212;-81
2022/09/01 05:50:02;;;;;;;26.03;23.00;;;;;;;14.26;96.48;95819.25;4963044;28;20180;-81
2022/09/01 05:52:30;;;;;;;24.70;22.10;;;;;;;14.48;96.21;95814.34;4951393;28;20188;-80
2022/09/01 05:54:58;;;;;;;26.67;23.67;;;;;;;14.56;95.59;95812.56;4968761;28;20570;-81
2022/09/01 05:57:24;;;;;;;26.77;23.97;;;;;;;14.65;95.93;95813.34;4969423;28;20719;-81
2022/09/01 05:59:52;;;;;;;25.50;22.83;;;;;;;14.64;94.42;95815.16;4964268;28;20194;-81
2022/09/01 06:02:20;;;;;;;25.03;22.33;;;;;;;14.60;96.59;95813.06;4974694;28;20183;-80
2022/09/01 06:04:46;;;;;;;23.90;21.40;;;;;;;14.78;96.31;95816.28;4956299;28;20287;-81
2022/09/01 06:07:13;;;;;;;24.98;21.88;;;;;;;14.83;95.43;95806.13;4966526;28;20298;-82
2022/09/01 06:09:42;;;;;;;23.95;21.42;;;;;;;14.86;95.50;95811.03;4965337;28;20180;-82
2022/09/01 06:12:16;;;;;;;23.10;20.70;;;;;;;14.92;95.65;95802.50;4948988;28;20191;-82
2022/09/01 06:14:42;;;;;;;23.23;20.80;;;;;;;14.90;96.30;95804.47;4955180;28;20829;-81
2022/09/01 06:17:10;;;;;;;24.40;21.90;;;;;;;14.79;96.37;95801.41;4958740;28;20208;-81
2022/09/01 06:19:36;;;;;;;23.67;21.20;;;;;;;14.99;95.76;95798.25;4956459;28;20564;-81
2022/09/01 06:22:02;;;;;;;23.67;21.13;;;;;;;14.98;94.77;95804.47;4964833;28;20252;-81
2022/09/01 06:24:28;;;;;;;23.45;19.98;;;;;;;15.02;94.85;95802.34;4970080;28;20227;-81
2022/09/01 06:26:53;;;;;;;22.92;20.42;;;;;;;15.00;95.69;95804.28;4970693;28;20296;-79
2022/09/01 06:29:19;;;;;;;21.75;19.45;;;;;;;15.12;95.27;95804.75;4956769;28;20681;-80
2022/09/01 06:31:46;;;;;;;20.42;18.33;;;;;;;15.19;94.23;95808.31;4954285;28;20571;-81
2022/09/01 06:34:16;;;;;;;20.65;18.55;;;;;;;15.21;94.71;95806.34;4969564;28;20188;-81
2022/09/01 06:36:42;;;;;;;18.38;16.60;;;;;;;15.17;94.84;95808.47;4966048;28;20231;-80
2022/09/01 06:39:08;;;;;;;18.52;16.55;;;;;;;15.38;94.55;95809.72;4970681;28;20185;-81
2022/09/01 06:41:36;;;;;;;18.95;17.10;;;;;;;15.43;93.94;95810.81;4967399;28;20670;-77
2022/09/01 06:44:01;;;;;;;19.27;16.88;;;;;;;15.48;93.51;95811.13;4977247;28;20179;-80
2022/09/01 06:46:27;;;;;;;17.98;16.15;;;;;;;15.57;93.55;95812.72;4984765;28;20281;-82
2022/09/01 06:48:53;;;;;;;19.08;17.08;;;;;;;15.57;93.18;95817.13;4968431;28;20671;-82
2022/09/01 06:51:20;;;;;;;16.90;15.20;;;;;;;15.77;91.79;95813.13;4961097;28;20529;-81
2022/09/01 06:53:49;;;;;;;17.52;15.82;;;;;;;15.85;92.57;95826.16;4965532;28;20179;-82
2022/09/01 06:56:17;;;;;;;18.80;16.92;;;;;;;15.84;91.14;95814.06;4957660;28;20211;-80
2022/09/01 06:58:47;;;;;;;19.23;17.42;;;;;;;15.86;91.15;95821.75;4969169;28;20311;-80
2022/09/01 07:01:18;;;;;;;18.30;16.38;;;;;;;16.00;89.97;95828.06;4962099;28;20275;-79
2022/09/01 07:03:46;;;;;;;20.15;17.17;;;;;;;15.97;89.17;95831.81;4958734;28;20211;-80
2022/09/01 07:06:14;;;;;;;19.55;17.55;;;;;;;16.02;89.53;95833.91;4967439;28;20298;-81
2022/09/01 07:08:40;;;;;;;19.00;17.00;;;;;;;15.80;90.18;95838.13;4961735;28;20238;-81
2022/09/01 07:11:08;;;;;;;19.77;17.67;;;;;;;16.06;89.14;95836.00;4959032;28;20204;-81
2022/09/01 07:13:35;;;;;;;19.60;17.60;;;;;;;16.06;89.42;95838.63;4969323;28;20583;-78
2022/09/01 07:16:03;;;;;;;19.33;17.35;;;;;;;16.21;88.65;95841.31;4962403;28;20231;-81
2022/09/01 07:18:30;;;;;;;19.88;17.83;;;;;;;16.28;88.64;95842.25;4971825;28;20564;-80
2022/09/01 07:20:55;;;;;;;20.92;18.83;;;;;;;16.39;87.64;95848.88;4967076;28;20282;-81
2022/09/01 07:23:22;;;;;;;22.23;19.83;;;;;;;16.35;88.47;95850.22;4969511;28;20703;-81
2022/09/01 07:25:48;;;;;;;22.77;20.20;;;;;;;16.40;87.65;95850.50;4985669;28;20212;-80
2022/09/01 07:28:15;;;;;;;21.58;19.40;;;;;;;16.63;87.05;95848.66;4960368;28;20207;-81
2022/09/01 07:30:44;;;;;;;23.70;21.30;;;;;;;16.63;87.63;95850.47;4952337;28;20199;-81
2022/09/01 07:33:10;;;;;;;21.98;19.77;;;;;;;16.85;87.18;95851.44;4961073;28;20215;-81
2022/09/01 07:35:36;;;;;;;21.63;19.42;;;;;;;16.99;87.07;95855.91;4954060;28;20204;-81
2022/09/01 07:38:08;;;;;;;22.40;20.10;;;;;;;17.27;84.97;95851.66;4959662;28;20196;-81
2022/09/01 07:40:36;;;;;;;21.63;19.38;;;;;;;17.36;83.96;95857.63;4963007;28;20191;-81
2022/09/01 07:43:06;;;;;;;22.73;20.33;;;;;;;17.56;82.77;95861.31;4969925;28;20192;-81
2022/09/01 07:45:32;;;;;;;20.50;18.40;;;;;;;17.62;81.44;95867.66;4954295;28;20302;-80
2022/09/01 07:48:05;;;;;;;18.77;17.00;;;;;;;17.91;81.17;95866.00;4959890;28;20266;-80
2022/09/01 07:50:32;;;;;;;19.23;17.23;;;;;;;17.98;80.74;95866.88;4958836;28;20184;-81
2022/09/01 07:52:59;;;;;;;18.65;16.73;;;;;;;18.09;79.22;95864.56;4958296;28;20192;-80
2022/09/01 07:55:24;;;;;;;18.77;16.80;;;;;;;17.97;79.96;95873.16;4958048;28;20188;-80
2022/09/01 07:57:51;;;;;;;18.88;16.88;;;;;;;18.28;78.60;95868.41;4955831;28;20184;-80
2022/09/01 08:00:17;;;;;;;18.50;16.52;;;;;;;18.16;77.72;95862.03;4961701;28;20184;-80
2022/09/01 08:02:43;;;;;;;17.65;15.80;;;;;;;18.06;78.21;95869.41;4968294;28;20272;-81
2022/09/01 08:05:09;;;;;;;17.70;15.25;;;;;;;17.76;82.04;95868.66;4980518;28;20291;-80
2022/09/01 08:07:35;;;;;;;17.58;15.77;;;;;;;17.93;79.48;95874.50;4964467;28;20932;-81
2022/09/01 08:10:02;;;;;;;16.80;15.02;;;;;;;17.89;80.12;95878.50;4963856;28;20203;-81
2022/09/01 08:12:28;;;;;;;15.85;14.10;;;;;;;17.85;80.43;95882.50;4971046;28;20576;-80
2022/09/01 08:14:53;;;;;;;14.95;13.40;;;;;;;17.95;79.06;95883.03;4972320;28;20184;-80
2022/09/01 08:17:20;;;;;;;17.75;13.82;;;;;;;17.77;79.48;95886.06;4962087;28;20291;-80
2022/09/01 08:19:45;;;;;;;14.45;12.93;;;;;;;17.84;79.56;95886.94;4955146;28;20739;-80
2022/09/01 08:22:12;;;;;;;14.70;13.27;;;;;;;17.97;77.80;95881.84;4954187;28;20274;-80
2022/09/01 08:24:37;;;;;;;14.57;13.20;;;;;;;18.11;78.71;95880.19;4958031;28;20204;-81
2022/09/01 08:27:03;;;;;;;13.07;11.88;;;;;;;17.92;77.59;95886.00;4974728;28;20279;-81
2022/09/01 08:29:28;;;;;;;12.02;10.55;;;;;;;17.60;79.57;95885.41;4956121;28;20183;-80
2022/09/01 08:31:53;;;;;;;12.52;10.45;;;;;;;17.82;77.63;95879.22;4964386;28;20215;-80
2022/09/01 08:34:19;;;;;;;9.98;9.02;;;;;;;18.32;76.35;95877.56;4968370;28;20243;-81
2022/09/01 08:36:45;;;;;;;9.40;8.50;;;;;;;18.36;75.13;95873.53;4965767;28;20644;-81
2022/09/01 08:39:10;;;;;;;8.43;7.63;;;;;;;18.28;71.96;95891.25;4956168;28;20188;-81
2022/09/01 08:41:38;;;;;;;8.35;7.55;;;;;;;18.63;69.46;95879.03;4985325;28;20196;-82
2022/09/01 08:44:36;;;;;;;8.52;6.82;;;;;;;18.87;70.63;95891.81;4981505;28;20255;-81
2022/09/01 08:47:05;;;;;;;7.18;6.47;;;;;;;18.85;68.61;95890.41;4966576;28;20582;-82
2022/09/01 08:49:30;;;;;;;6.30;5.72;;;;;;;19.14;68.05;95890.19;4972075;28;20218;-81
2022/09/01 08:52:07;;;;;;;6.30;5.70;;;;;;;19.27;67.03;95894.75;4958030;28;20213;-81
2022/09/01 08:54:44;;;;;;;7.40;6.70;;;;;;;19.12;68.09;95894.03;4955884;28;20744;-81
2022/09/01 08:57:16;;;;;;;7.32;6.53;;;;;;;19.21;65.60;95901.59;4971204;28;20199;-82
2022/09/01 08:59:41;;;;;;;6.38;5.80;;;;;;;19.08;66.83;95896.25;4968235;28;20192;-82
2022/09/01 09:02:10;;;;;;;5.63;5.10;;;;;;;18.99;67.09;95891.28;4956376;28;20193;-82
2022/09/01 09:04:46;;;;;;;5.50;5.00;;;;;;;18.52;66.49;95895.34;4981121;28;20296;-82
2022/09/01 09:07:36;;;;;;;4.95;4.53;;;;;;;18.80;65.28;95900.66;4986562;28;20204;-81
2022/09/01 09:10:16;;;;;;;5.90;5.30;;;;;;;18.98;65.06;95906.28;4963730;28;20192;-82
2022/09/01 09:13:07;;;;;;;5.03;4.53;;;;;;;19.27;64.61;95896.56;4953278;28;20275;-82
2022/09/01 09:15:46;;;;;;;4.97;4.57;;;;;;;19.39;64.46;95903.72;4949129;28;20252;-81
2022/09/01 09:18:24;;;;;;;5.28;4.88;;;;;;;19.40;64.55;95913.25;4966947;28;20604;-82
2022/09/01 09:20:50;;;;;;;6.18;5.57;;;;;;;19.59;63.53;95913.59;4956218;28;20207;-82
2022/09/01 09:23:24;;;;;;;7.85;6.05;;;;;;;19.52;63.44;95911.72;4958597;28;20544;-81
2022/09/01 09:25:50;;;;;;;7.63;6.93;;;;;;;19.40;63.96;95913.25;4957876;28;20236;-83
2022/09/01 09:28:16;;;;;;;6.80;6.20;;;;;;;19.17;64.39;95908.25;4955277;28;20202;-82
2022/09/01 09:30:41;;;;;;;8.30;7.50;;;;;;;19.04;65.67;95915.22;4967144;28;20188;-82
2022/09/01 09:33:09;;;;;;;7.97;7.28;;;;;;;19.06;65.85;95908.75;4963125;28;20188;-82
2022/09/01 09:35:43;;;;;;;8.43;7.63;;;;;;;19.24;66.07;95906.47;4968368;28;20199;-82
2022/09/01 09:38:17;;;;;;;13.50;8.27;;;;;;;19.47;65.31;95916.75;4967610;28;20227;-82
2022/09/01 09:41:10;;;;;;;7.10;6.40;;;;;;;19.73;63.77;95912.66;4969454;28;20615;-82
2022/09/01 09:43:41;;;;;;;6.40;5.90;;;;;;;19.76;63.15;95909.63;4988592;28;20187;-81
2022/09/01 09:46:25;;;;;;;7.65;6.95;;;;;;;19.68;62.99;95912.41;4960686;28;20239;-82
2022/09/01 09:49:23;;;;;;;8.02;7.25;;;;;;;19.37;64.05;95907.56;4970584;28;20184;-81
2022/09/01 09:52:08;;;;;;;9.43;8.52;;;;;;;19.51;64.13;95906.63;4965940;28;20195;-81
2022/09/01 09:54:35;;;;;;;8.20;7.40;;;;;;;19.55;63.80;95905.25;4982845;28;20322;-81
2022/09/01 09:57:15;;;;;;;8.20;7.40;;;;;;;20.04;63.03;95905.06;4955020;28;20224;-78
2022/09/01 09:59:43;;;;;;;7.65;6.85;;;;;;;20.12;62.93;95904.09;4982959;28;20184;-80
2022/09/01 10:02:30;;;;;;;8.38;7.10;;;;;;;19.90;63.29;95905.22;4951213;28;20730;-80
2022/09/01 10:04:57;;;;;;;8.18;7.38;;;;;;;19.99;64.68;95904.88;4955092;28;20238;-81
2022/09/01 10:07:43;;;;;;;9.27;8.18;;;;;;;19.85;62.04;95899.72;4973188;28;20203;-80
2022/09/01 10:10:42;;;;;;;7.55;6.85;;;;;;;19.94;63.10;95903.81;4972889;28;20207;-80
2022/09/01 10:13:11;;;;;;;8.25;7.45;;;;;;;20.03;63.21;95906.09;4893356;29;20290;-79
2022/09/01 10:15:38;;;;;;;8.50;7.70;;;;;;;20.15;60.71;95902.91;4876052;29;20251;-81
2022/09/01 10:18:13;;;;;;;8.20;7.40;;;;;;;20.23;60.79;95897.41;4876025;29;20242;-79
2022/09/01 10:20:45;;;;;;;7.55;6.85;;;;;;;20.09;61.35;95904.50;4863567;29;20187;-81
2022/09/01 10:23:10;;;;;;;8.50;7.50;;;;;;;19.96;62.59;95899.97;4876905;29;20211;-81
2022/09/01 10:25:36;;;;;;;8.23;7.30;;;;;;;19.97;62.69;95901.63;4874133;29;20226;-81
2022/09/01 10:28:08;;;;;;;8.40;7.60;;;;;;;20.20;62.03;95892.53;4876784;29;20616;-81
2022/09/01 10:30:36;;;;;;;8.55;7.80;;;;;;;20.25;60.76;95901.50;4874862;29;20219;-82
2022/09/01 10:33:01;;;;;;;7.28;6.55;;;;;;;20.34;59.71;95888.94;4876671;29;20202;-81
2022/09/01 10:35:32;;;;;;;6.60;6.05;;;;;;;20.39;61.48;95889.13;4861688;29;20619;-80
2022/09/01 10:38:01;;;;;;;7.82;6.85;;;;;;;19.94;59.52;95891.44;4874054;29;20227;-80
2022/09/01 10:40:27;;;;;;;7.97;7.18;;;;;;;19.59;61.37;95885.41;4881702;29;20195;-81
2022/09/01 10:42:55;;;;;;;7.15;6.45;;;;;;;19.86;61.35;95893.44;4877258;29;20835;-81
2022/09/01 10:45:36;;;;;;;7.78;6.95;;;;;;;19.88;61.24;95894.91;4875778;29;20298;-80
2022/09/01 10:48:19;;;;;;;8.23;6.15;;;;;;;19.77;61.17;95880.44;4892217;29;20191;-80
2022/09/01 10:50:46;;;;;;;8.02;7.32;;;;;;;19.98;62.46;95891.88;4969275;28;20523;-80
2022/09/01 10:53:34;;;;;;;8.85;7.95;;;;;;;20.25;59.39;95872.50;4960434;28;20180;-81
2022/09/01 10:56:15;;;;;;;7.38;6.63;;;;;;;20.57;58.96;95875.41;4985182;28;20212;-81
2022/09/01 10:59:00;;;;;;;6.88;6.28;;;;;;;20.80;60.30;95880.28;4955696;28;20219;-81
2022/09/01 11:01:40;;;;;;;7.13;6.45;;;;;;;20.16;58.40;95886.06;4966364;28;20576;-80
2022/09/01 11:04:11;;;;;;;6.68;6.07;;;;;;;20.36;60.63;95868.44;4982465;28;20551;-81
2022/09/01 11:07:01;;;;;;;5.93;5.38;;;;;;;20.29;59.12;95875.53;4965487;28;20209;-81
2022/09/01 11:09:29;;;;;;;6.28;5.78;;;;;;;19.98;60.80;95878.72;4953043;28;20214;-81
2022/09/01 11:12:13;;;;;;;6.80;6.10;;;;;;;19.84;61.20;95875.19;4990085;28;20184;-82
2022/09/01 11:14:51;;;;;;;7.18;6.53;;;;;;;19.87;61.03;95877.44;4967039;28;20220;-82
2022/09/01 11:17:24;;;;;;;7.22;6.35;;;;;;;20.16;60.18;95875.50;4968406;28;20223;-81
2022/09/01 11:19:59;;;;;;;6.07;5.47;;;;;;;20.48;60.59;95871.31;4965802;28;20211;-81
2022/09/01 11:22:28;;;;;;;7.90;6.65;;;;;;;20.76;58.97;95868.50;4968170;28;20192;-82
2022/09/01 11:25:33;;;;;;;6.95;6.25;;;;;;;21.09;57.76;95858.75;4968972;28;20692;-81
2022/09/01 11:28:22;;;;;;;9.18;5.85;;;;;;;20.81;56.27;95864.25;4975290;28;20671;-81
2022/09/01 11:30:54;;;;;;;8.07;5.90;;;;;;;20.31;55.83;95868.22;4975377;28;20200;-82